createdAt,value
2018-09-12T00:00:50.295Z,991.044
2018-09-12T00:02:50.528Z,990.995
2018-09-12T00:04:49.908Z,990.984
2018-09-12T00:06:50.067Z,990.976
2018-09-12T00:08:50.021Z,990.975
2018-09-12T00:10:50.035Z,990.951
2018-09-12T00:12:50.032Z,990.928
2018-09-12T00:14:50.090Z,990.845
2018-09-12T00:16:50.272Z,990.811
2018-09-12T00:18:50.222Z,990.787
2018-09-12T00:20:50.185Z,990.764
2018-09-12T00:22:50.212Z,990.765
2018-09-12T00:24:50.134Z,990.758
2018-09-12T00:26:50.330Z,990.734
2018-09-12T00:28:50.344Z,990.709
2018-09-12T00:30:50.380Z,990.685
2018-09-12T00:32:50.396Z,990.677
2018-09-12T00:34:49.782Z,990.660
2018-09-12T00:36:50.092Z,990.662
2018-09-12T00:38:50.051Z,990.653
2018-09-12T00:40:50.076Z,990.637
2018-09-12T00:42:50.154Z,990.610
2018-09-12T00:44:50.141Z,990.608
2018-09-12T00:46:50.301Z,990.613
2018-09-12T00:48:50.349Z,990.579
2018-09-12T00:50:50.401Z,990.575
2018-09-12T00:52:50.383Z,990.545
2018-09-12T00:54:50.338Z,990.537
2018-09-12T00:56:49.660Z,990.491
2018-09-12T00:58:49.718Z,990.496
2018-09-12T01:00:49.774Z,990.517
2018-09-12T01:02:49.853Z,990.519
2018-09-12T01:04:50.126Z,990.515
2018-09-12T01:06:50.304Z,990.491
2018-09-12T01:08:50.310Z,990.491
2018-09-12T01:10:50.284Z,990.455
2018-09-12T01:12:50.337Z,990.444
2018-09-12T01:14:50.367Z,990.422
2018-09-12T01:16:50.538Z,990.422
2018-09-12T01:18:50.626Z,990.427
2018-09-12T01:20:49.614Z,990.429
2018-09-12T01:22:49.673Z,990.429
2018-09-12T01:24:49.708Z,990.432
2018-09-12T01:26:50.105Z,990.431
2018-09-12T01:28:50.280Z,990.444
2018-09-12T01:30:50.211Z,990.449
2018-09-12T01:32:50.270Z,990.449
2018-09-12T01:34:49.745Z,990.468
2018-09-12T01:36:50.066Z,990.457
2018-09-12T01:38:50.107Z,990.412
2018-09-12T01:40:50.134Z,990.412
2018-09-12T01:42:50.141Z,990.371
2018-09-12T01:44:50.096Z,990.353
2018-09-12T01:46:50.287Z,990.355
2018-09-12T01:48:50.479Z,990.333
2018-09-12T01:50:49.626Z,990.331
2018-09-12T01:52:49.626Z,990.317
2018-09-12T01:54:49.620Z,990.294
2018-09-12T01:56:49.740Z,990.297
2018-09-12T01:58:49.955Z,990.282
2018-09-12T02:00:49.967Z,990.272
2018-09-12T02:02:49.995Z,990.277
2018-09-12T02:04:50.285Z,990.268
2018-09-12T02:06:50.472Z,990.266
2018-09-12T02:08:50.636Z,990.246
2018-09-12T02:10:49.672Z,990.246
2018-09-12T02:12:49.760Z,990.210
2018-09-12T02:14:49.829Z,990.191
2018-09-12T02:16:49.917Z,990.177
2018-09-12T02:18:50.041Z,990.190
2018-09-12T02:20:50.068Z,990.174
2018-09-12T02:22:50.066Z,990.163
2018-09-12T02:24:50.069Z,990.136
2018-09-12T02:26:50.341Z,990.146
2018-09-12T02:28:50.318Z,990.135
2018-09-12T02:30:50.338Z,990.130
2018-09-12T02:32:50.287Z,990.138
2018-09-12T02:34:50.600Z,990.116
2018-09-12T02:36:49.894Z,990.120
2018-09-12T02:38:49.941Z,990.095
2018-09-12T02:40:50.137Z,990.084
2018-09-12T02:42:50.254Z,990.036
2018-09-12T02:44:50.344Z,990.006
2018-09-12T02:46:50.498Z,989.983
2018-09-12T02:48:50.530Z,989.966
2018-09-12T02:50:50.492Z,989.962
2018-09-12T02:52:50.459Z,989.961
2018-09-12T02:54:50.454Z,989.963
2018-09-12T02:56:49.657Z,989.967
2018-09-12T02:58:49.718Z,989.961
2018-09-12T03:00:49.766Z,989.944
2018-09-12T03:02:49.872Z,989.932
2018-09-12T03:04:50.108Z,989.935
2018-09-12T03:06:50.254Z,989.928
2018-09-12T03:08:50.483Z,989.942
2018-09-12T03:10:50.450Z,989.939
2018-09-12T03:12:50.408Z,989.932
2018-09-12T03:14:50.481Z,989.924
2018-09-12T03:16:49.691Z,989.924
2018-09-12T03:18:49.738Z,989.911
2018-09-12T03:20:50.605Z,989.896
2018-09-12T03:22:50.120Z,989.859
2018-09-12T03:24:50.116Z,989.842
2018-09-12T03:26:50.338Z,989.835
2018-09-12T03:28:50.363Z,989.820
2018-09-12T03:30:50.290Z,989.811
2018-09-12T03:32:50.370Z,989.809
2018-09-12T03:34:49.832Z,989.809
2018-09-12T03:36:50.031Z,989.815
2018-09-12T03:38:50.024Z,989.790
2018-09-12T03:40:50.003Z,989.784
2018-09-12T03:42:50.022Z,989.777
2018-09-12T03:44:50.082Z,989.789
2018-09-12T03:46:50.257Z,989.791
2018-09-12T03:48:50.239Z,989.803
2018-09-12T03:50:50.227Z,989.812
2018-09-12T03:52:50.244Z,989.827
2018-09-12T03:54:50.207Z,989.834
2018-09-12T03:56:50.393Z,989.805
2018-09-12T03:58:50.470Z,989.791
2018-09-12T04:00:50.420Z,989.795
2018-09-12T04:02:50.825Z,989.784
2018-09-12T04:04:50.222Z,989.789
2018-09-12T04:06:50.604Z,989.805
2018-09-12T04:08:49.622Z,989.801
2018-09-12T04:10:49.630Z,989.788
2018-09-12T04:12:49.632Z,989.790
2018-09-12T04:14:49.642Z,989.773
2018-09-12T04:16:50.155Z,989.770
2018-09-12T04:18:50.453Z,989.763
2018-09-12T04:20:50.468Z,989.754
2018-09-12T04:22:50.451Z,989.745
2018-09-12T04:24:50.424Z,989.712
2018-09-12T04:26:50.108Z,989.684
2018-09-12T04:28:50.121Z,989.680
2018-09-12T04:30:50.108Z,989.666
2018-09-12T04:32:50.152Z,989.666
2018-09-12T04:34:50.521Z,989.666
2018-09-12T04:36:49.784Z,989.653
2018-09-12T04:38:49.778Z,989.653
2018-09-12T04:40:49.913Z,989.658
2018-09-12T04:42:50.179Z,989.668
2018-09-12T04:44:50.428Z,989.664
2018-09-12T04:46:49.621Z,989.653
2018-09-12T04:48:49.738Z,989.642
2018-09-12T04:50:49.825Z,989.643
2018-09-12T04:52:49.985Z,989.643
2018-09-12T04:54:50.108Z,989.652
2018-09-12T04:56:50.339Z,989.674
2018-09-12T04:58:50.482Z,989.671
2018-09-12T05:00:50.506Z,989.671
2018-09-12T05:02:50.608Z,989.673
2018-09-12T05:04:49.900Z,989.679
2018-09-12T05:06:50.125Z,989.692
2018-09-12T05:08:50.121Z,989.695
2018-09-12T05:10:50.124Z,989.685
2018-09-12T05:12:50.341Z,989.677
2018-09-12T05:14:50.303Z,989.679
2018-09-12T05:16:50.541Z,989.685
2018-09-12T05:18:50.583Z,989.665
2018-09-12T05:20:50.537Z,989.646
2018-09-12T05:22:49.636Z,989.590
2018-09-12T05:24:49.635Z,989.544
2018-09-12T05:26:50.008Z,989.544
2018-09-12T05:28:50.090Z,989.499
2018-09-12T05:30:50.065Z,989.486
2018-09-12T05:32:50.276Z,989.484
2018-09-12T05:34:49.665Z,989.495
2018-09-12T05:36:50.520Z,989.484
2018-09-12T05:38:50.482Z,989.485
2018-09-12T05:40:50.471Z,989.475
2018-09-12T05:42:50.560Z,989.471
2018-09-12T05:44:50.550Z,989.494
2018-09-12T05:46:49.784Z,989.526
2018-09-12T05:48:49.764Z,989.533
2018-09-12T05:50:49.732Z,989.532
2018-09-12T05:52:49.729Z,989.533
2018-09-12T05:54:49.749Z,989.523
2018-09-12T05:56:50.105Z,989.505
2018-09-12T05:58:50.066Z,989.479
2018-09-12T06:00:50.016Z,989.440
2018-09-12T06:02:50.094Z,989.419
2018-09-12T06:04:50.476Z,989.406
2018-09-12T06:06:49.991Z,989.406
2018-09-12T06:08:50.175Z,989.400
2018-09-12T06:10:50.147Z,989.419
2018-09-12T06:12:50.279Z,989.445
2018-09-12T06:14:50.289Z,989.445
2018-09-12T06:16:50.432Z,989.452
2018-09-12T06:18:50.517Z,989.449
2018-09-12T06:20:50.439Z,989.461
2018-09-12T06:22:50.562Z,989.445
2018-09-12T06:24:49.649Z,989.431
2018-09-12T06:26:49.926Z,989.429
2018-09-12T06:28:49.928Z,989.429
2018-09-12T06:30:50.159Z,989.406
2018-09-12T06:32:50.396Z,989.376
2018-09-12T06:34:49.736Z,989.355
2018-09-12T06:36:50.093Z,989.336
2018-09-12T06:38:50.130Z,989.335
2018-09-12T06:40:50.120Z,989.356
2018-09-12T06:42:50.137Z,989.361
2018-09-12T06:44:50.162Z,989.333
2018-09-12T06:46:50.334Z,989.333
2018-09-12T06:48:50.320Z,989.294
2018-09-12T06:50:50.284Z,989.287
2018-09-12T06:52:50.399Z,989.288
2018-09-12T06:54:50.706Z,989.295
2018-09-12T06:56:50.224Z,989.296
2018-09-12T06:58:50.276Z,989.298
2018-09-12T07:00:50.304Z,989.297
2018-09-12T07:02:50.392Z,989.297
2018-09-12T07:04:49.733Z,989.295
2018-09-12T07:06:49.935Z,989.283
2018-09-12T07:08:50.062Z,989.294
2018-09-12T07:10:50.067Z,989.287
2018-09-12T07:12:50.027Z,989.280
2018-09-12T07:14:50.012Z,989.272
2018-09-12T07:16:50.201Z,989.274
2018-09-12T07:18:50.241Z,989.245
2018-09-12T07:20:50.421Z,989.232
2018-09-12T07:22:50.543Z,989.221
2018-09-12T07:24:50.780Z,989.221
2018-09-12T07:26:50.232Z,989.229
2018-09-12T07:28:50.206Z,989.240
2018-09-12T07:30:50.192Z,989.246
2018-09-12T07:32:50.166Z,989.233
2018-09-12T07:34:49.708Z,989.229
2018-09-12T07:36:49.880Z,989.234
2018-09-12T07:38:49.861Z,989.243
2018-09-12T07:40:49.830Z,989.243
2018-09-12T07:42:49.822Z,989.262
2018-09-12T07:44:49.793Z,989.258
2018-09-12T07:46:49.986Z,989.263
2018-09-12T07:48:49.981Z,989.276
2018-09-12T07:50:49.988Z,989.307
2018-09-12T07:52:49.995Z,989.307
2018-09-12T07:54:50.048Z,989.300
2018-09-12T07:56:50.036Z,989.317
2018-09-12T07:58:50.082Z,989.323
2018-09-12T08:00:50.112Z,989.341
2018-09-12T08:02:50.053Z,989.334
2018-09-12T08:04:50.275Z,989.328
2018-09-12T08:06:50.458Z,989.323
2018-09-12T08:08:49.668Z,989.318
2018-09-12T08:10:49.627Z,989.304
2018-09-12T08:12:49.624Z,989.276
2018-09-12T08:14:49.751Z,989.276
2018-09-12T08:16:49.918Z,989.247
2018-09-12T08:18:50.251Z,989.185
2018-09-12T08:20:50.352Z,989.185
2018-09-12T08:22:50.455Z,989.206
2018-09-12T08:24:50.464Z,989.213
2018-09-12T08:26:49.829Z,989.213
2018-09-12T08:28:50.143Z,989.220
2018-09-12T08:30:50.121Z,989.254
2018-09-12T08:32:50.129Z,989.272
2018-09-12T08:34:50.499Z,989.275
2018-09-12T08:36:49.778Z,989.297
2018-09-12T08:38:49.748Z,989.315
2018-09-12T08:40:49.786Z,989.349
2018-09-12T08:42:50.065Z,989.366
2018-09-12T08:44:50.023Z,989.351
2018-09-12T08:46:50.095Z,989.385
2018-09-12T08:48:50.056Z,989.394
2018-09-12T08:50:50.048Z,989.387
2018-09-12T08:52:50.202Z,989.368
2018-09-12T08:54:50.417Z,989.312
2018-09-12T08:56:50.025Z,989.312
2018-09-12T08:58:50.404Z,989.277
2018-09-12T09:00:50.522Z,989.277
2018-09-12T09:02:49.630Z,989.220
2018-09-12T09:04:50.030Z,989.220
2018-09-12T09:06:50.165Z,989.201
2018-09-12T09:08:50.146Z,989.193
2018-09-12T09:10:50.163Z,989.154
2018-09-12T09:12:50.146Z,989.177
2018-09-12T09:14:50.123Z,989.183
2018-09-12T09:16:50.240Z,989.170
2018-09-12T09:18:50.178Z,989.180
2018-09-12T09:20:50.217Z,989.193
2018-09-12T09:22:50.195Z,989.193
2018-09-12T09:24:50.212Z,989.143
2018-09-12T09:26:50.321Z,989.128
2018-09-12T09:28:50.344Z,989.121
2018-09-12T09:30:50.370Z,989.104
2018-09-12T09:32:50.319Z,989.085
2018-09-12T09:34:49.834Z,989.079
2018-09-12T09:36:50.090Z,989.066
2018-09-12T09:38:50.185Z,989.045
2018-09-12T09:40:50.264Z,989.050
2018-09-12T09:42:50.591Z,989.022
2018-09-12T09:44:49.942Z,988.991
2018-09-12T09:46:50.161Z,988.987
2018-09-12T09:48:50.114Z,988.967
2018-09-12T09:50:50.107Z,988.927
2018-09-12T09:52:50.241Z,988.915
2018-09-12T09:54:50.868Z,988.898
2018-09-12T09:56:50.341Z,988.836
2018-09-12T09:58:50.524Z,988.820
2018-09-12T10:00:50.532Z,988.805
2018-09-12T10:02:50.644Z,988.774
2018-09-12T10:04:50.008Z,988.773
2018-09-12T10:06:50.043Z,988.749
2018-09-12T10:08:49.770Z,988.689
2018-09-12T10:10:50.031Z,988.662
2018-09-12T10:12:49.833Z,988.641
2018-09-12T10:14:50.032Z,988.652
2018-09-12T10:16:50.257Z,988.653
2018-09-12T10:18:50.297Z,988.642
2018-09-12T10:20:50.319Z,988.647
2018-09-12T10:22:50.349Z,988.602
2018-09-12T10:24:49.676Z,988.602
2018-09-12T10:26:49.893Z,988.551
2018-09-12T10:28:49.880Z,988.525
2018-09-12T10:30:49.874Z,988.493
2018-09-12T10:32:49.886Z,988.455
2018-09-12T10:34:50.179Z,988.448
2018-09-12T10:36:50.400Z,988.450
2018-09-12T10:38:50.308Z,988.424
2018-09-12T10:40:50.545Z,988.390
2018-09-12T10:42:49.631Z,988.365
2018-09-12T10:44:49.718Z,988.362
2018-09-12T10:46:50.056Z,988.331
2018-09-12T10:48:50.053Z,988.362
2018-09-12T10:50:50.272Z,988.366
2018-09-12T10:52:50.255Z,988.335
2018-09-12T10:54:50.331Z,988.287
2018-09-12T10:56:49.630Z,988.290
2018-09-12T10:58:49.623Z,988.261
2018-09-12T11:00:49.695Z,988.196
2018-09-12T11:02:49.733Z,988.176
2018-09-12T11:04:50.147Z,988.193
2018-09-12T11:06:50.540Z,988.183
2018-09-12T11:08:49.660Z,988.185
2018-09-12T11:10:49.630Z,988.180
2018-09-12T11:12:50.626Z,988.101
2018-09-12T11:14:49.651Z,988.085
2018-09-12T11:16:49.984Z,988.070
2018-09-12T11:18:49.977Z,988.041
2018-09-12T11:20:50.033Z,988.002
2018-09-12T11:22:50.062Z,988.002
2018-09-12T11:24:50.044Z,987.987
2018-09-12T11:26:50.297Z,987.977
2018-09-12T11:28:50.257Z,987.984
2018-09-12T11:30:50.284Z,987.977
2018-09-12T11:32:50.264Z,987.964
2018-09-12T11:34:50.565Z,987.932
2018-09-12T11:36:49.767Z,987.902
2018-09-12T11:38:49.854Z,987.909
2018-09-12T11:40:49.799Z,987.894
2018-09-12T11:42:49.817Z,987.897
2018-09-12T11:44:49.830Z,987.868
2018-09-12T11:46:50.015Z,987.840
2018-09-12T11:48:49.998Z,987.834
2018-09-12T11:50:49.983Z,987.778
2018-09-12T11:52:50.114Z,987.734
2018-09-12T11:54:50.090Z,987.701
2018-09-12T11:56:50.373Z,987.704
2018-09-12T11:58:50.354Z,987.704
2018-09-12T12:00:50.416Z,987.728
2018-09-12T12:02:50.405Z,987.712
2018-09-12T12:04:50.689Z,987.674
2018-09-12T12:06:49.895Z,987.607
2018-09-12T12:08:49.890Z,987.593
2018-09-12T12:10:49.970Z,987.552
2018-09-12T12:12:49.997Z,987.527
2018-09-12T12:14:50.045Z,987.475
2018-09-12T12:16:50.716Z,987.450
2018-09-12T12:18:49.832Z,987.420
2018-09-12T12:20:50.201Z,987.403
2018-09-12T12:22:50.186Z,987.360
2018-09-12T12:24:50.182Z,987.360
2018-09-12T12:26:50.387Z,987.241
2018-09-12T12:28:49.813Z,987.227
2018-09-12T12:30:49.792Z,987.238
2018-09-12T12:32:49.901Z,987.269
2018-09-12T12:34:50.275Z,987.236
2018-09-12T12:36:50.481Z,987.229
2018-09-12T12:38:50.459Z,987.203
2018-09-12T12:40:50.493Z,987.134
2018-09-12T12:42:50.463Z,987.134
2018-09-12T12:44:50.584Z,987.088
2018-09-12T12:46:49.874Z,987.075
2018-09-12T12:48:49.839Z,987.003
2018-09-12T12:50:50.010Z,987.003
2018-09-12T12:52:49.956Z,986.942
2018-09-12T12:54:50.052Z,986.911
2018-09-12T12:56:50.219Z,986.891
2018-09-12T12:58:50.157Z,986.930
2018-09-12T13:00:50.157Z,986.878
2018-09-12T13:02:50.133Z,986.854
2018-09-12T13:04:50.452Z,986.807
2018-09-12T13:06:50.520Z,986.758
2018-09-12T13:08:50.516Z,986.718
2018-09-12T13:10:49.663Z,986.676
2018-09-12T13:12:49.654Z,986.669
2018-09-12T13:14:49.790Z,986.659
2018-09-12T13:16:49.988Z,986.642
2018-09-12T13:18:49.997Z,986.628
2018-09-12T13:20:50.238Z,986.605
2018-09-12T13:22:50.151Z,986.563
2018-09-12T13:24:50.096Z,986.534
2018-09-12T13:26:50.140Z,986.490
2018-09-12T13:28:50.079Z,986.451
2018-09-12T13:30:50.049Z,986.429
2018-09-12T13:32:50.028Z,986.393
2018-09-12T13:34:50.276Z,986.374
2018-09-12T13:36:50.456Z,986.357
2018-09-12T13:38:50.432Z,986.331
2018-09-12T13:40:50.418Z,986.339
2018-09-12T13:42:49.619Z,986.302
2018-09-12T13:44:49.806Z,986.280
2018-09-12T13:46:49.994Z,986.235
2018-09-12T13:48:49.987Z,986.234
2018-09-12T13:50:49.982Z,986.203
2018-09-12T13:52:49.944Z,986.160
2018-09-12T13:54:49.962Z,986.152
2018-09-12T13:56:50.262Z,986.087
2018-09-12T13:58:50.241Z,986.081
2018-09-12T14:00:50.250Z,986.106
2018-09-12T14:02:50.259Z,986.090
2018-09-12T14:04:50.534Z,986.072
2018-09-12T14:06:49.826Z,986.033
2018-09-12T14:08:50.120Z,986.004
2018-09-12T14:10:50.415Z,986.012
2018-09-12T14:12:50.388Z,985.983
2018-09-12T14:14:50.398Z,985.967
2018-09-12T14:16:49.700Z,985.929
2018-09-12T14:18:49.881Z,985.900
2018-09-12T14:20:49.860Z,985.898
2018-09-12T14:22:50.209Z,985.898
2018-09-12T14:24:50.632Z,985.879
2018-09-12T14:26:50.019Z,985.877
2018-09-12T14:28:50.291Z,985.873
2018-09-12T14:30:50.311Z,985.874
2018-09-12T14:32:50.287Z,985.859
2018-09-12T14:34:50.604Z,985.845
2018-09-12T14:36:49.701Z,985.820
2018-09-12T14:38:49.735Z,985.822
2018-09-12T14:40:50.236Z,985.841
2018-09-12T14:42:50.276Z,985.828
2018-09-12T14:44:50.280Z,985.802
2018-09-12T14:46:50.371Z,985.777
2018-09-12T14:48:50.292Z,985.777
2018-09-12T14:50:50.554Z,985.804
2018-09-12T14:52:50.014Z,985.790
2018-09-12T14:54:50.061Z,985.757
2018-09-12T14:56:50.394Z,985.670
2018-09-12T14:58:50.539Z,985.646
2018-09-12T15:00:49.856Z,985.637
2018-09-12T15:02:49.906Z,985.630
2018-09-12T15:04:50.445Z,985.636
2018-09-12T15:06:50.461Z,985.622
2018-09-12T15:08:50.380Z,985.615
2018-09-12T15:10:50.495Z,985.616
2018-09-12T15:12:50.425Z,985.616
2018-09-12T15:14:50.507Z,985.612
2018-09-12T15:16:49.771Z,985.568
2018-09-12T15:18:49.943Z,985.549
2018-09-12T15:20:50.328Z,985.542
2018-09-12T15:22:50.257Z,985.546
2018-09-12T15:24:50.286Z,985.560
2018-09-12T15:26:50.692Z,985.603
2018-09-12T15:28:49.827Z,985.605
2018-09-12T15:30:49.817Z,985.592
2018-09-12T15:32:49.923Z,985.585
2018-09-12T15:34:50.202Z,985.598
2018-09-12T15:36:50.280Z,985.587
2018-09-12T15:38:50.209Z,985.564
2018-09-12T15:40:50.277Z,985.532
2018-09-12T15:42:50.273Z,985.489
2018-09-12T15:44:50.361Z,985.504
2018-09-12T15:46:50.500Z,985.548
2018-09-12T15:48:49.759Z,985.564
2018-09-12T15:50:49.921Z,985.572
2018-09-12T15:52:49.911Z,985.576
2018-09-12T15:54:50.026Z,985.576
2018-09-12T15:56:50.174Z,985.574
2018-09-12T15:58:50.149Z,985.561
2018-09-12T16:00:50.149Z,985.560
2018-09-12T16:02:50.423Z,985.525
2018-09-12T16:04:50.106Z,985.478
2018-09-12T16:06:50.237Z,985.478
2018-09-12T16:08:50.307Z,985.457
2018-09-12T16:10:50.405Z,985.445
2018-09-12T16:12:50.456Z,985.419
2018-09-12T16:14:50.447Z,985.388
2018-09-12T16:16:49.757Z,985.364
2018-09-12T16:18:49.865Z,985.363
2018-09-12T16:20:49.936Z,985.322
2018-09-12T16:22:50.143Z,985.291
2018-09-12T16:24:50.203Z,985.278
2018-09-12T16:26:50.333Z,985.258
2018-09-12T16:28:50.258Z,985.248
2018-09-12T16:30:50.348Z,985.233
2018-09-12T16:32:50.508Z,985.239
2018-09-12T16:34:49.877Z,985.263
2018-09-12T16:36:50.040Z,985.257
2018-09-12T16:38:50.026Z,985.222
2018-09-12T16:40:49.945Z,985.193
2018-09-12T16:42:49.956Z,985.149
2018-09-12T16:44:49.983Z,985.159
2018-09-12T16:46:50.199Z,985.157
2018-09-12T16:48:50.183Z,985.132
2018-09-12T16:50:50.207Z,985.121
2018-09-12T16:52:50.210Z,985.105
2018-09-12T16:54:51.419Z,985.092
2018-09-12T16:56:50.930Z,985.077
2018-09-12T16:58:50.187Z,985.062
2018-09-12T17:00:50.239Z,985.047
2018-09-12T17:02:50.537Z,985.092
2018-09-12T17:04:50.260Z,985.082
2018-09-12T17:06:50.457Z,985.084
2018-09-12T17:08:50.399Z,985.081
2018-09-12T17:10:50.455Z,985.071
2018-09-12T17:12:50.446Z,985.083
2018-09-12T17:14:50.453Z,985.088
2018-09-12T17:16:49.694Z,985.095
2018-09-12T17:18:49.798Z,985.099
2018-09-12T17:20:49.782Z,985.102
2018-09-12T17:22:49.871Z,985.102
2018-09-12T17:24:49.856Z,985.094
2018-09-12T17:26:50.116Z,985.090
2018-09-12T17:28:50.178Z,985.088
2018-09-12T17:30:50.160Z,985.092
2018-09-12T17:32:50.119Z,985.104
2018-09-12T17:34:50.561Z,985.130
2018-09-12T17:36:49.817Z,985.146
2018-09-12T17:38:49.840Z,985.159
2018-09-12T17:40:49.901Z,985.165
2018-09-12T17:42:50.072Z,985.189
2018-09-12T17:44:50.103Z,985.191
2018-09-12T17:46:50.222Z,985.204
2018-09-12T17:48:50.249Z,985.182
2018-09-12T17:50:50.341Z,985.163
2018-09-12T17:52:50.352Z,985.168
2018-09-12T17:54:50.442Z,985.170
2018-09-12T17:56:50.581Z,985.199
2018-09-12T17:58:49.796Z,985.208
2018-09-12T18:00:49.869Z,985.249
2018-09-12T18:02:49.866Z,985.296
2018-09-12T18:04:50.136Z,985.290
2018-09-12T18:06:50.082Z,985.304
2018-09-12T18:08:50.052Z,985.329
2018-09-12T18:10:50.171Z,985.362
2018-09-12T18:12:50.302Z,985.371
2018-09-12T18:14:50.431Z,985.368
2018-09-12T18:16:50.615Z,985.371
2018-09-12T18:18:49.604Z,985.382
2018-09-12T18:20:49.648Z,985.398
2018-09-12T18:22:49.947Z,985.397
2018-09-12T18:24:50.403Z,985.435
2018-09-12T18:26:50.037Z,985.494
2018-09-12T18:28:50.068Z,985.528
2018-09-12T18:30:50.249Z,985.567
2018-09-12T18:32:50.259Z,985.585
2018-09-12T18:34:50.463Z,985.619
2018-09-12T18:36:50.589Z,985.633
2018-09-12T18:38:49.632Z,985.629
2018-09-12T18:40:49.860Z,985.627
2018-09-12T18:42:49.974Z,985.620
2018-09-12T18:44:50.020Z,985.626
2018-09-12T18:46:50.259Z,985.618
2018-09-12T18:48:50.261Z,985.590
2018-09-12T18:50:50.226Z,985.607
2018-09-12T18:52:50.275Z,985.620
2018-09-12T18:54:50.267Z,985.645
2018-09-12T18:56:50.459Z,985.655
2018-09-12T18:58:50.505Z,985.651
2018-09-12T19:00:50.521Z,985.679
2018-09-12T19:02:49.669Z,985.675
2018-09-12T19:04:49.955Z,985.672
2018-09-12T19:06:50.482Z,985.644
2018-09-12T19:08:49.883Z,985.645
2018-09-12T19:10:49.909Z,985.682
2018-09-12T19:12:50.200Z,985.698
2018-09-12T19:14:50.456Z,985.702
2018-09-12T19:16:49.638Z,985.700
2018-09-12T19:18:49.897Z,985.690
2018-09-12T19:20:49.923Z,985.682
2018-09-12T19:22:49.943Z,985.688
2018-09-12T19:24:50.012Z,985.708
2018-09-12T19:26:50.066Z,985.718
2018-09-12T19:28:50.058Z,985.723
2018-09-12T19:30:50.132Z,985.748
2018-09-12T19:32:50.273Z,985.765
2018-09-12T19:34:50.596Z,985.765
2018-09-12T19:36:49.893Z,985.775
2018-09-12T19:38:49.892Z,985.759
2018-09-12T19:40:50.066Z,985.764
2018-09-12T19:42:50.097Z,985.747
2018-09-12T19:44:50.111Z,985.749
2018-09-12T19:46:50.172Z,985.761
2018-09-12T19:48:50.226Z,985.781
2018-09-12T19:50:50.212Z,985.815
2018-09-12T19:52:50.252Z,985.839
2018-09-12T19:54:50.765Z,985.849
2018-09-12T19:56:50.196Z,985.888
2018-09-12T19:58:50.219Z,985.902
2018-09-12T20:00:50.183Z,985.925
2018-09-12T20:02:50.181Z,985.949
2018-09-12T20:04:50.484Z,985.961
2018-09-12T20:06:49.730Z,985.950
2018-09-12T20:08:49.852Z,985.935
2018-09-12T20:10:49.850Z,985.935
2018-09-12T20:12:49.907Z,985.892
2018-09-12T20:14:49.960Z,985.879
2018-09-12T20:16:50.114Z,985.884
2018-09-12T20:18:50.098Z,985.894
2018-09-12T20:20:50.089Z,985.894
2018-09-12T20:22:50.072Z,985.902
2018-09-12T20:24:50.058Z,985.919
2018-09-12T20:26:50.227Z,985.950
2018-09-12T20:28:50.306Z,985.963
2018-09-12T20:30:50.345Z,985.976
2018-09-12T20:32:50.396Z,985.976
2018-09-12T20:34:49.730Z,985.967
2018-09-12T20:36:49.968Z,985.931
2018-09-12T20:38:50.009Z,985.894
2018-09-12T20:40:50.031Z,985.880
2018-09-12T20:42:50.047Z,985.871
2018-09-12T20:44:50.005Z,985.862
2018-09-12T20:46:50.148Z,985.834
2018-09-12T20:48:50.126Z,985.818
2018-09-12T20:50:50.122Z,985.804
2018-09-12T20:52:50.190Z,985.785
2018-09-12T20:54:50.147Z,985.788
2018-09-12T20:56:50.311Z,985.789
2018-09-12T20:58:50.291Z,985.799
2018-09-12T21:00:50.329Z,985.820
2018-09-12T21:02:50.720Z,985.813
2018-09-12T21:04:50.239Z,985.831
2018-09-12T21:06:50.451Z,985.842
2018-09-12T21:08:50.508Z,985.825
2018-09-12T21:10:50.836Z,985.784
2018-09-12T21:12:50.033Z,985.754
2018-09-12T21:14:50.142Z,985.724
2018-09-12T21:16:50.444Z,985.696
2018-09-12T21:18:50.472Z,985.722
2018-09-12T21:20:50.400Z,985.744
2018-09-12T21:22:50.351Z,985.753
2018-09-12T21:24:50.313Z,985.757
2018-09-12T21:26:50.430Z,985.736
2018-09-12T21:28:50.483Z,985.727
2018-09-12T21:30:50.532Z,985.724
2018-09-12T21:32:50.593Z,985.711
2018-09-12T21:34:50.164Z,985.687
2018-09-12T21:36:50.360Z,985.678
2018-09-12T21:38:50.370Z,985.674
2018-09-12T21:40:50.447Z,985.680
2018-09-12T21:42:50.450Z,985.687
2018-09-12T21:44:50.456Z,985.687
2018-09-12T21:46:49.621Z,985.674
2018-09-12T21:48:50.602Z,985.687
2018-09-12T21:50:49.717Z,985.692
2018-09-12T21:52:49.792Z,985.709
2018-09-12T21:54:49.784Z,985.711
2018-09-12T21:56:50.026Z,985.707
2018-09-12T21:58:50.052Z,985.702
2018-09-12T22:00:50.092Z,985.685
2018-09-12T22:02:50.075Z,985.666
2018-09-12T22:04:50.476Z,985.650
2018-09-12T22:06:49.706Z,985.616
2018-09-12T22:08:49.740Z,985.603
2018-09-12T22:10:49.847Z,985.592
2018-09-12T22:12:49.831Z,985.616
2018-09-12T22:14:49.948Z,985.638
2018-09-12T22:16:50.191Z,985.641
2018-09-12T22:18:50.213Z,985.639
2018-09-12T22:20:50.270Z,985.649
2018-09-12T22:22:50.455Z,985.644
2018-09-12T22:24:50.469Z,985.638
2018-09-12T22:26:49.775Z,985.647
2018-09-12T22:28:49.785Z,985.678
2018-09-12T22:30:49.807Z,985.663
2018-09-12T22:32:49.899Z,985.622
2018-09-12T22:34:50.141Z,985.591
2018-09-12T22:36:50.428Z,985.583
2018-09-12T22:38:50.416Z,985.543
2018-09-12T22:40:50.546Z,985.535
2018-09-12T22:42:50.506Z,985.519
2018-09-12T22:44:49.617Z,985.520
2018-09-12T22:46:50.058Z,985.501
2018-09-12T22:48:50.001Z,985.458
2018-09-12T22:50:50.086Z,985.455
2018-09-12T22:52:50.100Z,985.464
2018-09-12T22:54:50.117Z,985.472
2018-09-12T22:56:50.196Z,985.474
2018-09-12T22:58:50.262Z,985.460
2018-09-12T23:00:50.306Z,985.455
2018-09-12T23:02:50.277Z,985.445
2018-09-12T23:04:50.668Z,985.458
2018-09-12T23:06:49.814Z,985.467
2018-09-12T23:08:49.836Z,985.470
2018-09-12T23:10:49.817Z,985.481
2018-09-12T23:12:49.825Z,985.557
2018-09-12T23:14:49.878Z,985.625
2018-09-12T23:16:50.112Z,985.664
2018-09-12T23:18:50.305Z,985.625
2018-09-12T23:20:50.386Z,985.641
2018-09-12T23:22:50.471Z,985.623
2018-09-12T23:24:50.498Z,985.566
2018-09-12T23:26:49.643Z,985.532
2018-09-12T23:28:49.720Z,985.560
2018-09-12T23:30:49.739Z,985.515
2018-09-12T23:32:49.826Z,985.490
2018-09-12T23:34:50.156Z,985.514
2018-09-12T23:36:50.257Z,985.496
2018-09-12T23:38:50.181Z,985.472
2018-09-12T23:40:50.276Z,985.435
2018-09-12T23:42:50.279Z,985.419
2018-09-12T23:44:50.275Z,985.391
2018-09-12T23:46:50.438Z,985.395
2018-09-12T23:48:50.405Z,985.389
2018-09-12T23:50:50.485Z,985.379
2018-09-12T23:52:50.563Z,985.374
2018-09-12T23:54:50.583Z,985.393
2018-09-12T23:56:49.770Z,985.406
2018-09-12T23:58:49.780Z,985.392
